首页
METAR-TAF:

METAR-TAF

机场 :

Burley, 爱达荷州, 美国

纬度: 42-32-33N, 经度: 113-46-17W, 海拔: 1265米

当前天气观测

该预报发布于32分钟前的02:53 UTC
风速4节,风向西
温度 21°C
湿度 38%
气压 1013 hPa
能見度: 16.1公里
天空无云

METAR: KBYI 010253Z AUTO 27004KT 10SM CLR 21/06 A2991 RMK AO2 SLP090 T02060061 55004

时间: 21:25 (03:25 UTC)

预报

该预报发布于4小时和5分钟前的23:20 UTC
预报有效从01日的 00点(UTC)到 01日的 24点(UTC)
风速4节,风向多变
能見度: 10公里
少量云层高于9000英尺
少量云层高于25000英尺
从 01日的 2000点(UTC)
风速12节,风向西
能見度: 10公里
散云层高于25000英尺

TAF: KBYI 312320Z 0100/0124 VRB04KT P6SM FEW090 FEW250 FM012000 28012KT P6SM SCT250

超过4000个机场的气象观测和天气预报(METAR&TAF报告)。

可查询的气象台以黄色和红色小点在地图上表示。

将鼠标移到小点上方,可查看气象台名称。

然后点击查看天气观测和预报。

如需切换地图:点击带黑十字的绿色按钮放大地图;点击带横线的绿色按钮缩小地图;或者点击绿色箭头查看邻近地区的地图。


METAR-TAF: